This is the latest recevied weather packets stored in our database for station/object DJ4RO-13. If no packets are shown the sender has not sent any weather packets the latest 10 day(s).
| Time | Temp. | Humidity | Pressure | Rain* | Wind** | Luminosity | Snow |
|---|---|---|---|---|---|---|---|
| 1777623628 | 17.78° C | 44% | 1035 hPa | 0 mm | - | 482 W/m² | - |
| 1777623308 | 18.33° C | 45% | 1035 hPa | 0 mm | - | 474 W/m² | - |
| 1777622972 | 17.78° C | 46% | 1035.2 hPa | 0 mm | - | 463 W/m² | - |
| 1777622652 | 17.78° C | 46% | 1035.2 hPa | 0 mm | - | 454 W/m² | - |
| 1777622332 | 17.22° C | 48% | 1035.2 hPa | 0 mm | - | 441 W/m² | - |
| 1777622012 | 16.67° C | 50% | 1035.2 hPa | 0 mm | - | 432 W/m² | - |
| 1777621692 | 17.22° C | 48% | 1035 hPa | 0 mm | - | 422 W/m² | - |
| 1777621372 | 16.11° C | 50% | 1035.2 hPa | 0 mm | - | 412 W/m² | - |
| 1777621052 | 16.67° C | 50% | 1035.1 hPa | 0 mm | - | 400 W/m² | - |
| 1777620732 | 16.11° C | 52% | 1035 hPa | 0 mm | - | 386 W/m² | - |
| 1777620412 | 16.11° C | 52% | 1035.1 hPa | 0 mm | - | 378 W/m² | - |
| 1777620092 | 15.56° C | 54% | 1035.1 hPa | 0 mm | - | 367 W/m² | - |
| 1777619772 | 16.11° C | 51% | 1035.1 hPa | 0 mm | - | 356 W/m² | - |
| 1777619452 | 15.56° C | 54% | 1035.1 hPa | 0 mm | - | 345 W/m² | - |
| 1777619132 | 15° C | 54% | 1035.1 hPa | 0 mm | - | 332 W/m² | - |
| 1777618812 | 15° C | 56% | 1035.2 hPa | 0 mm | - | 321 W/m² | - |
| 1777618493 | 14.44° C | 56% | 1035.2 hPa | 0 mm | - | 308 W/m² | - |
| 1777618173 | 14.44° C | 58% | 1035.3 hPa | 0 mm | - | 297 W/m² | - |
| 1777617852 | 13.89° C | 58% | 1035.1 hPa | 0 mm | - | 284 W/m² | - |
| 1777617533 | 13.89° C | 60% | 1035.1 hPa | 0 mm | - | 272 W/m² | - |
| 1777617212 | 13.33° C | 61% | 1035.1 hPa | 0 mm | - | 257 W/m² | - |
| 1777616892 | 12.78° C | 62% | 1034.9 hPa | 0 mm | - | 247 W/m² | - |
| 1777616573 | 12.78° C | 61% | 1034.9 hPa | 0 mm | - | 235 W/m² | - |
| 1777616253 | 13.33° C | 61% | 1035 hPa | 0 mm | - | 222 W/m² | - |
| 1777615932 | 13.33° C | 61% | 1034.9 hPa | 0 mm | - | 210 W/m² | - |
* Rain latest hour (hover to see other rain measurements)
** Current wind speed in m/s (hover to see current wind gust speed)